Time;durP1;ratioP1;P1;durP2;ratioP2;P2;SDS_P1;SDS_P2;PMS_P1;PMS_P2;Temp;Humidity;BMP_temperature;BMP_pressure;BME280_temperature;BME280_humidity;BME280_pressure;Samples;Min_cycle;Max_cycle;Signal;HPM_P1;HPM_P2
2023/10/05 00:00:47;;;;;;;4.70;2.20;;;;;;;12.14;100.00;99385.03;5108143;28;20046;-63
2023/10/05 00:03:12;;;;;;;1.77;0.80;;;;;;;12.10;100.00;99374.78;5108152;28;20105;-65
2023/10/05 00:05:38;;;;;;;4.35;1.60;;;;;;;12.08;100.00;99369.63;5108004;28;20059;-64
2023/10/05 00:08:04;;;;;;;9.60;1.42;;;;;;;12.06;100.00;99373.97;5089320;28;20073;-64
2023/10/05 00:10:33;;;;;;;1.33;0.70;;;;;;;12.02;100.00;99364.56;5107718;28;20023;-63
2023/10/05 00:13:05;;;;;;;3.90;1.05;;;;;;;12.02;100.00;99372.38;5107729;28;20024;-63
2023/10/05 00:15:32;;;;;;;2.55;0.95;;;;;;;11.98;100.00;99369.00;5107907;28;20024;-63
2023/10/05 00:17:57;;;;;;;1.83;0.85;;;;;;;11.93;100.00;99363.13;5107712;28;20028;-63
2023/10/05 00:20:27;;;;;;;4.25;1.58;;;;;;;11.92;100.00;99360.56;5107488;28;20023;-64
2023/10/05 00:22:52;;;;;;;6.75;2.40;;;;;;;11.89;100.00;99357.16;5107615;28;20035;-64
2023/10/05 00:25:23;;;;;;;4.30;1.27;;;;;;;11.93;100.00;99367.47;5107128;28;20023;-65
2023/10/05 00:27:52;;;;;;;5.82;1.13;;;;;;;11.92;100.00;99363.19;5107556;28;20020;-64
2023/10/05 00:30:17;;;;;;;3.85;0.90;;;;;;;11.89;100.00;99369.31;5107345;28;20119;-67
2023/10/05 00:32:47;;;;;;;3.60;0.80;;;;;;;11.75;100.00;99359.31;5107345;28;20032;-64
2023/10/05 00:37:45;;;;;;;0.85;0.75;;;;;;;11.73;100.00;99379.31;5107668;28;20048;-65
2023/10/05 00:40:26;;;;;;;0.82;0.50;;;;;;;11.68;100.00;99383.81;5088390;28;20471;-65
2023/10/05 00:42:51;;;;;;;0.50;0.32;;;;;;;11.64;100.00;99383.91;5106699;28;20119;-65
2023/10/05 00:45:24;;;;;;;0.35;0.35;;;;;;;11.65;100.00;99383.00;5107109;28;20020;-65
2023/10/05 00:47:50;;;;;;;2.30;1.38;;;;;;;11.64;100.00;99394.31;5107292;28;20027;-65
2023/10/05 00:50:17;;;;;;;1.98;0.47;;;;;;;11.61;100.00;99381.38;5107101;28;20031;-65
2023/10/05 00:52:44;;;;;;;0.98;0.70;;;;;;;11.59;100.00;99390.13;5107067;28;20423;-66
2023/10/05 00:55:12;;;;;;;0.50;0.43;;;;;;;11.56;100.00;99401.47;5106721;28;20024;-66
2023/10/05 00:57:39;;;;;;;11.25;0.95;;;;;;;11.53;100.00;99402.41;5106909;28;20024;-66
2023/10/05 01:02:31;;;;;;;3.60;1.13;;;;;;;11.47;100.00;99393.94;5107235;28;20076;-65
2023/10/05 01:05:00;;;;;;;0.77;0.50;;;;;;;11.45;100.00;99387.94;5106935;28;20122;-65
2023/10/05 01:07:42;;;;;;;1.13;0.70;;;;;;;11.46;100.00;99394.81;5088420;28;20499;-65
2023/10/05 01:12:50;;;;;;;0.45;0.45;;;;;;;11.49;100.00;99395.59;5106992;28;19915;-65
2023/10/05 01:15:22;;;;;;;0.30;0.30;;;;;;;11.48;100.00;99403.44;5106707;28;20031;-65
2023/10/05 01:17:50;;;;;;;;;;;;;;;11.50;100.00;99407.69;5107174;28;20414;-65
2023/10/05 01:22:44;;;;;;;0.85;0.50;;;;;;;11.43;100.00;99407.91;5106409;28;20122;-65
2023/10/05 01:25:14;;;;;;;0.20;0.20;;;;;;;11.49;100.00;99418.97;5106312;28;20019;-65
2023/10/05 01:27:52;;;;;;;0.65;0.65;;;;;;;11.50;100.00;99409.44;5106203;28;20024;-66
2023/10/05 01:30:19;;;;;;;1.10;0.55;;;;;;;11.51;100.00;99416.34;5106316;28;20460;-65
2023/10/05 01:32:45;;;;;;;1.52;0.65;;;;;;;11.50;100.00;99412.88;5106245;28;20051;-65
2023/10/05 01:35:15;;;;;;;3.75;0.47;;;;;;;11.49;100.00;99420.72;5106142;28;20020;-65
2023/10/05 01:37:44;;;;;;;1.38;0.77;;;;;;;11.44;100.00;99415.66;5105984;28;20019;-65
2023/10/05 01:40:30;;;;;;;11.63;0.77;;;;;;;11.43;100.00;99410.50;5105970;28;20040;-65
2023/10/05 01:42:56;;;;;;;0.22;0.22;;;;;;;11.37;100.00;99435.75;5098383;28;20103;-65
2023/10/05 01:45:33;;;;;;;1.98;0.65;;;;;;;11.30;100.00;99443.75;5106032;28;20066;-66
2023/10/05 01:48:04;;;;;;;2.08;0.88;;;;;;;11.25;100.00;99444.75;5098633;28;20142;-64
2023/10/05 01:50:32;;;;;;;0.80;0.60;;;;;;;11.20;100.00;99445.78;5106044;28;20099;-66
2023/10/05 01:55:35;;;;;;;0.43;0.40;;;;;;;11.11;100.00;99452.91;5105119;28;20020;-66
2023/10/05 01:58:01;;;;;;;0.95;0.73;;;;;;;11.11;100.00;99450.31;5105797;28;20027;-65
2023/10/05 02:00:26;;;;;;;0.95;0.52;;;;;;;11.10;100.00;99450.34;5105748;28;20020;-65
2023/10/05 02:02:55;;;;;;;4.53;0.70;;;;;;;11.07;100.00;99473.81;5105706;28;20028;-66
2023/10/05 02:05:21;;;;;;;5.43;0.40;;;;;;;11.00;100.00;99458.38;5105830;28;20526;-65
2023/10/05 02:07:50;;;;;;;0.22;0.22;;;;;;;10.96;100.00;99466.31;5105639;28;20024;-65
2023/10/05 02:10:21;;;;;;;1.40;0.50;;;;;;;10.96;100.00;99466.31;5105470;28;20027;-65
2023/10/05 02:12:54;;;;;;;1.00;0.85;;;;;;;10.95;100.00;99470.63;5105703;28;20039;-65
2023/10/05 02:15:29;;;;;;;0.30;0.30;;;;;;;10.89;100.00;99479.41;5105500;28;20027;-65
2023/10/05 02:17:56;;;;;;;0.40;0.40;;;;;;;10.89;100.00;99482.00;5105450;28;20030;-64
2023/10/05 02:22:57;;;;;;;0.30;0.30;;;;;;;10.82;100.00;99482.19;5105552;28;20448;-64
2023/10/05 02:25:25;;;;;;;0.30;0.30;;;;;;;10.81;100.00;99486.56;5105188;28;20028;-64
2023/10/05 02:27:51;;;;;;;0.32;0.32;;;;;;;10.80;100.00;99490.03;5105152;28;20028;-63
2023/10/05 02:30:17;;;;;;;0.22;0.22;;;;;;;10.82;100.00;99496.03;5105330;28;20043;-62
2023/10/05 02:32:43;;;;;;;0.30;0.30;;;;;;;10.82;100.00;99501.22;5105373;28;20028;-62
2023/10/05 02:35:18;;;;;;;0.30;0.30;;;;;;;10.81;100.00;99515.13;5105160;28;20024;-61
2023/10/05 02:37:50;;;;;;;0.35;0.35;;;;;;;10.79;100.00;99516.88;5105148;28;20031;-62
2023/10/05 02:40:16;;;;;;;0.30;0.30;;;;;;;10.58;100.00;99500.06;5105022;28;20078;-61
2023/10/05 02:42:41;;;;;;;0.95;0.55;;;;;;;10.59;100.00;99527.75;5105081;28;20028;-61
2023/10/05 02:45:09;;;;;;;0.30;0.30;;;;;;;10.50;100.00;99526.19;5105005;28;20107;-61
2023/10/05 02:47:34;;;;;;;4.38;0.52;;;;;;;10.39;100.00;99513.44;5105043;28;20101;-64
2023/10/05 02:50:01;;;;;;;0.30;0.30;;;;;;;10.42;100.00;99531.53;5105326;28;20016;-68
2023/10/05 02:52:31;;;;;;;0.30;0.30;;;;;;;10.35;100.00;99524.78;5104975;28;20491;-65
2023/10/05 02:54:57;;;;;;;0.30;0.30;;;;;;;10.30;100.00;99540.44;5105074;28;20087;-65
2023/10/05 02:57:22;;;;;;;0.28;0.28;;;;;;;10.25;100.00;99555.25;5105051;28;20027;-64
2023/10/05 02:59:50;;;;;;;0.20;0.20;;;;;;;10.23;100.00;99559.59;5104759;28;20224;-65
2023/10/05 03:02:16;;;;;;;0.20;0.20;;;;;;;10.17;100.00;99578.75;5105205;28;20020;-65
2023/10/05 03:04:45;;;;;;;0.20;0.20;;;;;;;10.11;100.00;99582.28;5104848;28;20020;-65
2023/10/05 03:07:15;;;;;;;0.30;0.30;;;;;;;10.08;100.00;99574.59;5108315;28;20153;-65
2023/10/05 03:09:42;;;;;;;0.20;0.20;;;;;;;10.07;100.00;99587.56;5109692;28;20020;-65
2023/10/05 03:12:08;;;;;;;0.30;0.30;;;;;;;10.00;100.00;99599.84;5109063;28;20025;-65
2023/10/05 03:14:34;;;;;;;0.30;0.30;;;;;;;9.95;100.00;99601.66;5109294;28;20035;-64
2023/10/05 03:17:04;;;;;;;0.30;0.30;;;;;;;9.95;100.00;99606.84;5109087;28;20048;-64
2023/10/05 03:19:29;;;;;;;0.30;0.30;;;;;;;9.92;100.00;99595.63;5109159;28;20040;-64
2023/10/05 03:21:58;;;;;;;0.20;0.20;;;;;;;9.89;100.00;99602.59;5109034;28;20375;-65
2023/10/05 03:24:24;;;;;;;0.20;0.20;;;;;;;9.80;100.00;99606.22;5108835;28;20024;-65
2023/10/05 03:26:51;;;;;;;0.20;0.20;;;;;;;9.74;100.00;99606.34;5108684;28;20154;-65
2023/10/05 03:29:17;;;;;;;0.30;0.30;;;;;;;9.68;100.00;99604.69;5087086;28;20020;-64
2023/10/05 03:32:04;;;;;;;0.30;0.30;;;;;;;9.64;100.00;99608.25;5107770;28;20035;-64
2023/10/05 03:34:31;;;;;;;0.30;0.30;;;;;;;9.65;100.00;99604.75;5109009;28;20020;-65
2023/10/05 03:36:59;;;;;;;0.30;0.30;;;;;;;9.62;100.00;99600.50;5087234;28;20027;-65
2023/10/05 03:39:28;;;;;;;0.30;0.30;;;;;;;9.64;100.00;99616.88;5105068;28;20028;-65
2023/10/05 03:41:54;;;;;;;0.30;0.30;;;;;;;9.62;100.00;99608.25;5108348;28;20054;-65
2023/10/05 03:44:19;;;;;;;0.30;0.30;;;;;;;9.61;100.00;99610.88;5108478;28;20121;-65
2023/10/05 03:46:49;;;;;;;0.30;0.30;;;;;;;9.62;100.00;99615.19;5108534;28;20064;-65
2023/10/05 03:49:14;;;;;;;0.30;0.30;;;;;;;9.66;100.00;99614.25;5086511;28;20035;-65
2023/10/05 03:51:41;;;;;;;0.30;0.30;;;;;;;9.64;100.00;99616.00;5106863;28;20027;-65
2023/10/05 03:54:07;;;;;;;0.30;0.30;;;;;;;9.67;100.00;99627.19;5108501;28;20035;-64
2023/10/05 03:56:34;;;;;;;0.30;0.30;;;;;;;9.69;100.00;99631.47;5108167;28;20024;-64
2023/10/05 03:59:00;;;;;;;0.30;0.30;;;;;;;9.67;100.00;99637.56;5108235;28;20020;-64
2023/10/05 04:01:25;;;;;;;0.30;0.30;;;;;;;9.63;100.00;99643.66;5108223;28;20736;-64
2023/10/05 04:03:51;;;;;;;0.30;0.30;;;;;;;9.53;100.00;99636.94;5108220;28;20019;-64
2023/10/05 04:06:17;;;;;;;0.30;0.30;;;;;;;9.52;100.00;99650.78;5108043;28;20031;-64
2023/10/05 04:08:54;;;;;;;0.30;0.30;;;;;;;9.52;100.00;99648.19;5089743;28;20036;-64
2023/10/05 04:11:21;;;;;;;0.30;0.30;;;;;;;9.52;100.00;99656.78;5108124;28;20079;-64
2023/10/05 04:13:46;;;;;;;0.30;0.30;;;;;;;9.53;100.00;99668.03;5108041;28;20035;-65
2023/10/05 04:16:21;;;;;;;0.30;0.30;;;;;;;9.56;100.00;99670.56;5086385;28;20020;-64
2023/10/05 04:18:47;;;;;;;0.30;0.30;;;;;;;9.55;100.00;99669.69;5106509;28;20039;-66
2023/10/05 04:21:15;;;;;;;0.30;0.30;;;;;;;9.57;100.00;99672.25;5107868;28;20024;-65
2023/10/05 04:23:42;;;;;;;0.30;0.30;;;;;;;9.55;100.00;99672.28;5107815;28;20028;-65
2023/10/05 04:26:09;;;;;;;0.30;0.30;;;;;;;9.55;100.00;99669.69;5107554;28;20028;-64
2023/10/05 04:28:35;;;;;;;0.30;0.30;;;;;;;9.52;100.00;99674.94;5107537;28;20051;-65
2023/10/05 04:31:01;;;;;;;0.22;0.22;;;;;;;9.53;100.00;99679.25;5107481;28;20016;-65
2023/10/05 04:33:27;;;;;;;0.22;0.22;;;;;;;9.52;100.00;99679.28;5107496;28;20077;-65
2023/10/05 04:35:53;;;;;;;0.30;0.30;;;;;;;9.52;100.00;99689.66;5107232;28;20351;-65
2023/10/05 04:38:25;;;;;;;0.30;0.30;;;;;;;9.53;100.00;99689.63;5107353;28;20499;-65
2023/10/05 04:40:50;;;;;;;;;;;;;;;9.58;100.00;99697.31;5107299;28;20119;-64
2023/10/05 04:43:17;;;;;;;0.30;0.30;;;;;;;9.56;100.00;99701.66;5107449;28;19911;-64
2023/10/05 04:45:42;;;;;;;0.30;0.30;;;;;;;9.55;100.00;99702.56;5107118;28;20095;-64
2023/10/05 04:48:12;;;;;;;0.30;0.30;;;;;;;9.52;100.00;99703.44;5106928;28;20439;-64
2023/10/05 04:50:37;;;;;;;0.30;0.30;;;;;;;9.55;100.00;99702.56;5107173;28;20047;-65
2023/10/05 04:53:09;;;;;;;0.30;0.30;;;;;;;9.56;100.00;99704.25;5107301;28;20030;-64
2023/10/05 04:55:41;;;;;;;0.30;0.30;;;;;;;9.53;100.00;99714.66;5107245;28;20111;-63
2023/10/05 04:58:31;;;;;;;0.20;0.20;;;;;;;9.50;100.00;99718.16;5106923;28;20023;-64
2023/10/05 05:03:48;;;;;;;0.40;0.40;;;;;;;9.51;100.00;99716.41;5106989;28;20077;-65
2023/10/05 05:06:14;;;;;;;0.30;0.30;;;;;;;9.50;100.00;99719.91;5106826;28;20024;-65
2023/10/05 05:08:40;;;;;;;0.30;0.30;;;;;;;9.50;100.00;99722.50;5106744;28;20028;-64
2023/10/05 05:11:18;;;;;;;0.30;0.30;;;;;;;9.49;100.00;99715.59;5106663;28;20031;-64
2023/10/05 05:13:48;;;;;;;0.30;0.30;;;;;;;9.48;100.00;99722.50;5106984;28;20050;-65
2023/10/05 05:16:17;;;;;;;0.30;0.30;;;;;;;9.44;100.00;99731.19;5106805;28;20084;-64
2023/10/05 05:18:43;;;;;;;0.30;0.30;;;;;;;9.42;100.00;99726.03;5106587;28;20020;-64
2023/10/05 05:21:10;;;;;;;0.20;0.20;;;;;;;9.45;100.00;99738.09;5106768;28;20118;-65
2023/10/05 05:23:35;;;;;;;0.30;0.30;;;;;;;9.46;100.00;99738.94;5106493;28;20236;-64
2023/10/05 05:26:03;;;;;;;0.30;0.30;;;;;;;9.42;100.00;99741.56;5106425;28;20054;-65
2023/10/05 05:28:28;;;;;;;0.30;0.30;;;;;;;9.41;100.00;99741.59;5084962;28;20021;-63
2023/10/05 05:30:54;;;;;;;0.30;0.30;;;;;;;9.41;100.00;99747.66;5106116;28;20330;-64
2023/10/05 05:33:19;;;;;;;0.30;0.30;;;;;;;9.41;100.00;99752.81;5106125;28;20084;-65
2023/10/05 05:35:45;;;;;;;0.30;0.30;;;;;;;9.42;100.00;99757.13;5106311;28;20108;-64
2023/10/05 05:38:11;;;;;;;0.30;0.30;;;;;;;9.39;100.00;99764.09;5105411;28;20037;-64
2023/10/05 05:40:37;;;;;;;0.30;0.30;;;;;;;9.41;100.00;99762.31;5105736;28;20040;-65
2023/10/05 05:43:08;;;;;;;0.25;0.25;;;;;;;9.42;100.00;99764.06;5105999;28;20464;-62
2023/10/05 05:45:34;;;;;;;0.30;0.30;;;;;;;9.43;100.00;99763.16;5106074;28;20024;-65
2023/10/05 05:48:00;;;;;;;0.30;0.30;;;;;;;9.44;100.00;99766.63;5104968;28;20423;-65
2023/10/05 05:50:29;;;;;;;0.20;0.20;;;;;;;9.43;100.00;99760.56;5105183;28;20024;-65
2023/10/05 05:52:56;;;;;;;0.30;0.30;;;;;;;9.50;100.00;99782.09;5105638;28;20077;-65
2023/10/05 05:55:22;;;;;;;0.30;0.30;;;;;;;9.50;100.00;99774.31;5105973;28;20094;-65
2023/10/05 05:57:50;;;;;;;0.30;0.30;;;;;;;9.50;100.00;99777.78;5106161;28;20024;-65
2023/10/05 06:00:18;;;;;;;0.30;0.30;;;;;;;9.56;100.00;99782.00;5105976;28;20028;-65
2023/10/05 06:02:44;;;;;;;0.30;0.30;;;;;;;9.58;100.00;99787.16;5087717;28;20020;-65
2023/10/05 06:05:11;;;;;;;0.30;0.30;;;;;;;9.59;100.00;99789.72;5106043;28;20028;-65
2023/10/05 06:07:38;;;;;;;0.30;0.30;;;;;;;9.66;100.00;99787.91;5105657;28;20020;-65
2023/10/05 06:10:14;;;;;;;0.30;0.30;;;;;;;9.69;100.00;99787.00;5087236;28;20020;-65
2023/10/05 06:12:41;;;;;;;0.30;0.30;;;;;;;9.82;100.00;99806.69;5087312;28;20027;-65
2023/10/05 06:15:07;;;;;;;0.30;0.30;;;;;;;9.81;100.00;99793.75;5087627;28;20020;-66
2023/10/05 06:17:35;;;;;;;0.30;0.30;;;;;;;9.86;100.00;99808.34;5106037;28;20027;-66
2023/10/05 06:20:04;;;;;;;0.30;0.30;;;;;;;9.84;100.00;99814.44;5105648;28;20020;-65
2023/10/05 06:22:29;;;;;;;0.20;0.20;;;;;;;9.83;100.00;99816.16;5105738;28;20024;-67
2023/10/05 06:24:54;;;;;;;0.30;0.30;;;;;;;9.78;100.00;99818.81;5105476;28;20149;-67
2023/10/05 06:27:21;;;;;;;0.20;0.20;;;;;;;9.89;100.00;99821.25;5105356;28;20024;-67
2023/10/05 06:29:47;;;;;;;0.30;0.30;;;;;;;9.97;100.00;99833.25;5105473;28;20336;-65
2023/10/05 06:32:12;;;;;;;0.30;0.30;;;;;;;9.94;100.00;99831.56;5105469;28;20039;-64
2023/10/05 06:34:37;;;;;;;0.30;0.30;;;;;;;10.06;100.00;99843.50;5105484;28;20051;-64
2023/10/05 06:37:04;;;;;;;0.30;0.30;;;;;;;10.47;100.00;99861.03;5105353;28;20020;-64
2023/10/05 06:39:30;;;;;;;0.20;0.20;;;;;;;10.81;100.00;99862.19;5104952;28;20032;-62
2023/10/05 06:41:57;;;;;;;0.30;0.30;;;;;;;11.28;100.00;99875.13;5104689;28;20028;-64
2023/10/05 06:44:23;;;;;;;0.20;0.20;;;;;;;11.68;100.00;99872.63;5105473;28;20078;-63
2023/10/05 06:46:49;;;;;;;0.30;0.30;;;;;;;12.01;100.00;99868.38;5105162;28;20024;-61
2023/10/05 06:49:14;;;;;;;0.20;0.20;;;;;;;12.24;100.00;99876.56;5105305;28;20031;-62
2023/10/05 06:51:43;;;;;;;0.20;0.20;;;;;;;12.64;100.00;99882.53;5105176;28;20107;-62
2023/10/05 06:54:09;;;;;;;0.20;0.20;;;;;;;13.30;100.00;99897.31;5105316;28;20082;-62
2023/10/05 06:56:35;;;;;;;0.20;0.20;;;;;;;13.54;100.00;99900.16;5105098;28;20049;-62
2023/10/05 06:59:00;;;;;;;0.20;0.20;;;;;;;13.53;100.00;99901.03;5105047;28;20024;-61
2023/10/05 07:01:26;;;;;;;0.20;0.20;;;;;;;13.31;100.00;99896.41;5104948;28;20074;-61
2023/10/05 07:03:55;;;;;;;0.20;0.20;;;;;;;13.04;100.00;99914.53;5086821;28;20024;-62
2023/10/05 07:06:24;;;;;;;0.20;0.20;;;;;;;12.75;100.00;99908.31;5104881;28;20092;-61
2023/10/05 07:08:52;;;;;;;0.20;0.20;;;;;;;12.70;100.00;99912.81;5104864;28;20048;-61
2023/10/05 07:11:18;;;;;;;0.20;0.20;;;;;;;12.69;100.00;99914.53;5104888;28;20032;-62
2023/10/05 07:13:43;;;;;;;0.20;0.20;;;;;;;12.75;100.00;99918.72;5105101;28;20052;-62
2023/10/05 07:16:09;;;;;;;0.20;0.20;;;;;;;12.79;100.00;99920.38;5105058;28;20048;-63
2023/10/05 07:18:34;;;;;;;0.20;0.20;;;;;;;13.12;100.00;99930.81;5104924;28;20023;-62
2023/10/05 07:21:00;;;;;;;0.20;0.20;;;;;;;13.37;100.00;99939.72;5105014;28;20357;-62
2023/10/05 07:23:25;;;;;;;0.20;0.20;;;;;;;13.57;100.00;99944.41;5104770;28;20027;-62
2023/10/05 07:25:50;;;;;;;0.22;0.22;;;;;;;13.65;100.00;99948.53;5104678;28;20045;-62
2023/10/05 07:28:16;;;;;;;0.30;0.30;;;;;;;13.69;100.00;99950.19;5104933;28;20020;-61
2023/10/05 07:30:43;;;;;;;0.20;0.20;;;;;;;13.69;100.00;99958.00;5104784;28;20051;-61
2023/10/05 07:33:08;;;;;;;0.20;0.20;;;;;;;13.76;100.00;99956.91;5104719;28;20046;-62
2023/10/05 07:35:33;;;;;;;0.20;0.20;;;;;;;13.99;100.00;99963.22;5104783;28;20020;-62
2023/10/05 07:37:59;;;;;;;0.20;0.20;;;;;;;14.15;100.00;99961.00;5104666;28;20074;-61
2023/10/05 07:40:25;;;;;;;0.20;0.20;;;;;;;14.04;100.00;99958.69;5104547;28;20062;-61
2023/10/05 07:42:50;;;;;;;0.20;0.20;;;;;;;13.85;100.00;99966.25;5104768;28;20016;-61
2023/10/05 07:45:16;;;;;;;0.20;0.20;;;;;;;13.64;100.00;99971.19;5104807;28;20020;-62
2023/10/05 07:47:43;;;;;;;0.25;0.25;;;;;;;13.69;100.00;99989.31;5104834;28;20024;-61
2023/10/05 07:50:10;;;;;;;0.20;0.20;;;;;;;13.75;100.00;99989.97;5104511;28;20032;-61
2023/10/05 07:52:37;;;;;;;0.20;0.20;;;;;;;13.84;100.00;99998.44;5105157;28;20024;-60
2023/10/05 07:55:06;;;;;;;0.20;0.20;;;;;;;14.19;100.00;100000.91;5108389;28;20034;-60
2023/10/05 07:57:32;;;;;;;0.20;0.20;;;;;;;14.65;100.00;99993.41;5108313;28;20016;-60
2023/10/05 07:59:57;;;;;;;0.20;0.20;;;;;;;15.30;100.00;100000.91;5108285;28;20035;-60
2023/10/05 08:02:22;;;;;;;0.20;0.20;;;;;;;15.96;100.00;99995.91;5108334;28;20024;-61
2023/10/05 08:04:48;;;;;;;0.20;0.20;;;;;;;16.72;100.00;100013.97;5108252;28;20445;-60
2023/10/05 08:07:13;;;;;;;0.20;0.20;;;;;;;17.43;100.00;100019.84;5108188;28;20044;-60
2023/10/05 08:09:42;;;;;;;0.20;0.20;;;;;;;18.09;100.00;100033.56;5107926;28;20020;-60
2023/10/05 08:12:09;;;;;;;0.20;0.20;;;;;;;18.73;100.00;100027.13;5107792;28;20135;-60
2023/10/05 08:14:34;;;;;;;0.10;0.10;;;;;;;19.30;100.00;100036.63;5108228;28;20046;-61
2023/10/05 08:16:59;;;;;;;0.20;0.20;;;;;;;19.80;99.83;100046.38;5107852;28;20079;-60
2023/10/05 08:19:25;;;;;;;0.10;0.10;;;;;;;20.15;97.17;100040.16;5107840;28;20047;-60
2023/10/05 08:21:54;;;;;;;0.10;0.10;;;;;;;20.23;94.07;100035.31;5108104;28;20065;-60
2023/10/05 08:24:20;;;;;;;0.20;0.20;;;;;;;20.04;91.38;100044.25;5107880;28;20034;-60
2023/10/05 08:26:48;;;;;;;0.20;0.20;;;;;;;19.88;90.24;100053.88;5107828;28;20114;-61
2023/10/05 08:29:16;;;;;;;0.10;0.10;;;;;;;20.14;91.95;100054.28;5107992;28;20103;-61
2023/10/05 08:31:44;;;;;;;0.10;0.10;;;;;;;20.51;91.15;100059.31;5107762;28;20024;-60
2023/10/05 08:34:10;;;;;;;0.10;0.10;;;;;;;20.84;90.88;100075.94;5107745;28;20035;-61
2023/10/05 08:36:36;;;;;;;0.20;0.20;;;;;;;21.14;91.41;100075.13;5107797;28;20024;-61
2023/10/05 08:39:03;;;;;;;0.20;0.20;;;;;;;21.41;90.82;100087.66;5107761;28;20016;-61
2023/10/05 08:41:31;;;;;;;0.10;0.10;;;;;;;21.60;90.74;100084.75;5107333;28;20040;-61
2023/10/05 08:44:17;;;;;;;0.10;0.10;;;;;;;21.96;90.97;100090.59;5107496;28;20038;-61
2023/10/05 08:46:43;;;;;;;0.10;0.10;;;;;;;22.14;88.42;100098.31;5107442;28;20016;-61
2023/10/05 08:49:12;;;;;;;0.10;0.10;;;;;;;22.24;88.63;100099.44;5107502;28;20059;-61
2023/10/05 08:51:39;;;;;;;0.10;0.10;;;;;;;22.54;88.65;100111.66;5107507;28;20020;-62
2023/10/05 08:54:09;;;;;;;0.10;0.10;;;;;;;22.86;89.50;100125.59;5107484;28;20023;-62
2023/10/05 08:56:40;;;;;;;0.10;0.10;;;;;;;23.14;88.32;100121.13;5107168;28;20032;-62
2023/10/05 08:59:07;;;;;;;0.10;0.10;;;;;;;23.40;85.45;100124.69;5107576;28;20032;-63
2023/10/05 09:01:34;;;;;;;0.10;0.10;;;;;;;23.74;85.33;100140.09;5107333;28;20027;-62
2023/10/05 09:04:04;;;;;;;0.10;0.10;;;;;;;24.04;83.59;100142.56;5106766;28;20030;-63
2023/10/05 09:06:30;;;;;;;0.10;0.10;;;;;;;23.88;79.98;100141.81;5106954;28;20024;-62
2023/10/05 09:11:32;;;;;;;0.10;0.10;;;;;;;23.51;80.68;100152.28;5106952;28;20020;-62
2023/10/05 09:14:08;;;;;;;0.10;0.10;;;;;;;23.96;82.21;100146.56;5106972;28;20024;-62
2023/10/05 09:16:41;;;;;;;0.10;0.10;;;;;;;24.58;82.45;100161.81;5106856;28;20031;-63
2023/10/05 09:19:07;;;;;;;0.10;0.10;;;;;;;24.92;81.53;100170.00;5107025;28;20032;-61
2023/10/05 09:21:42;;;;;;;0.10;0.10;;;;;;;25.20;81.95;100186.56;5106985;28;20118;-61
2023/10/05 09:24:20;;;;;;;0.10;0.10;;;;;;;25.44;79.40;100188.34;5106856;28;20043;-63
2023/10/05 09:26:54;;;;;;;0.10;0.10;;;;;;;25.25;75.91;100184.41;5106516;28;20028;-63
2023/10/05 09:29:28;;;;;;;0.10;0.10;;;;;;;25.48;77.51;100187.16;5106499;28;20027;-62
2023/10/05 09:31:54;;;;;;;0.10;0.10;;;;;;;25.45;73.25;100187.38;5106788;28;20024;-62
2023/10/05 09:34:51;;;;;;;0.90;0.90;;;;;;;24.50;65.63;100196.84;5106638;28;20051;-63
2023/10/05 09:37:18;;;;;;;0.10;0.10;;;;;;;23.80;71.92;100206.91;5090530;28;20142;-62
2023/10/05 09:39:54;;;;;;;0.10;0.10;;;;;;;24.23;74.10;100211.94;5106354;28;20090;-62
2023/10/05 09:42:33;;;;;;;0.10;0.10;;;;;;;24.99;73.98;100219.06;5106109;28;20020;-62
2023/10/05 09:45:08;;;;;;;0.68;0.68;;;;;;;25.36;73.08;100219.94;5088295;28;20472;-62
2023/10/05 09:47:35;;;;;;;0.10;0.10;;;;;;;25.74;71.55;100232.22;5106323;28;20028;-62
2023/10/05 09:50:15;;;;;;;0.10;0.10;;;;;;;26.36;71.59;100228.44;5106132;28;20031;-62
2023/10/05 09:52:48;;;;;;;0.10;0.10;;;;;;;27.12;72.04;100229.63;5106498;28;20266;-61
2023/10/05 09:55:21;;;;;;;0.10;0.10;;;;;;;27.08;59.55;100217.50;5106445;28;20020;-62
2023/10/05 09:57:47;;;;;;;0.10;0.10;;;;;;;26.72;61.69;100231.84;5106001;28;20020;-62
2023/10/05 10:02:59;;;;;;;0.10;0.10;;;;;;;27.16;66.79;100249.69;5106378;28;20028;-62
2023/10/05 10:05:36;;;;;;;0.10;0.10;;;;;;;27.62;65.69;100254.03;5105839;28;20031;-62
2023/10/05 10:08:21;;;;;;;0.10;0.10;;;;;;;28.13;65.75;100257.75;5105876;28;20031;-61
2023/10/05 10:11:07;;;;;;;0.10;0.10;;;;;;;28.40;65.59;100261.72;5105833;28;20028;-62
2023/10/05 10:13:43;;;;;;;0.10;0.10;;;;;;;28.24;65.18;100261.31;5106001;28;20024;-62
2023/10/05 10:16:21;;;;;;;0.10;0.10;;;;;;;27.92;63.55;100266.63;5105058;28;20024;-62
2023/10/05 10:18:47;;;;;;;0.10;0.10;;;;;;;28.28;65.46;100273.41;5106026;28;20020;-63
2023/10/05 10:21:46;;;;;;;0.10;0.10;;;;;;;27.93;60.70;100276.31;5105835;28;20024;-62
2023/10/05 10:24:15;;;;;;;0.52;0.52;;;;;;;27.86;63.04;100285.78;5105281;28;20032;-63
2023/10/05 10:27:07;;;;;;;0.00;0.00;;;;;;;27.88;63.00;100277.66;5086448;28;20073;-62
2023/10/05 10:30:01;;;;;;;0.10;0.10;;;;;;;27.54;61.84;100287.47;5104962;28;20448;-62
2023/10/05 10:32:32;;;;;;;0.00;0.00;;;;;;;27.26;64.07;100299.56;5104492;28;20070;-62
2023/10/05 10:35:12;;;;;;;0.10;0.10;;;;;;;27.56;65.12;100304.22;5083774;28;20064;-62
2023/10/05 10:37:44;;;;;;;0.10;0.10;;;;;;;27.14;57.26;100304.91;5103541;28;20024;-61
2023/10/05 10:42:56;;;;;;;0.10;0.10;;;;;;;26.69;62.75;100316.44;5105414;28;20091;-62
2023/10/05 10:45:32;;;;;;;0.10;0.10;;;;;;;26.58;63.03;100333.25;5105540;28;20017;-63
2023/10/05 10:47:59;;;;;;;0.10;0.10;;;;;;;26.61;64.18;100325.84;5105156;28;20028;-63
2023/10/05 10:50:31;;;;;;;0.70;0.63;;;;;;;26.70;63.44;100328.78;5105215;28;20066;-62
2023/10/05 10:53:00;;;;;;;0.28;0.28;;;;;;;26.93;62.69;100332.31;5105460;28;20024;-62
2023/10/05 10:55:30;;;;;;;1.00;0.63;;;;;;;27.08;61.48;100329.38;5105404;28;20054;-62
2023/10/05 10:57:57;;;;;;;0.47;0.35;;;;;;;27.35;61.98;100322.78;5105039;28;20027;-61
2023/10/05 11:03:12;;;;;;;1.45;0.63;;;;;;;28.05;61.77;100334.94;5105376;28;20024;-61
2023/10/05 11:05:43;;;;;;;0.55;0.30;;;;;;;28.02;60.88;100340.53;5105316;28;20028;-61
2023/10/05 11:08:13;;;;;;;0.30;0.20;;;;;;;27.77;60.89;100342.56;5105173;28;20077;-61
2023/10/05 11:10:40;;;;;;;0.63;0.40;;;;;;;27.59;63.10;100345.75;5105135;28;20031;-61
2023/10/05 11:13:19;;;;;;;1.00;0.52;;;;;;;27.84;61.50;100349.13;5105076;28;20031;-62
2023/10/05 11:15:50;;;;;;;0.47;0.30;;;;;;;27.71;57.28;100352.81;5105209;28;20028;-61
2023/10/05 11:18:18;;;;;;;1.00;0.63;;;;;;;26.05;60.25;100359.34;5105260;28;20045;-62
2023/10/05 11:20:51;;;;;;;1.73;0.40;;;;;;;24.43;64.56;100352.97;5105157;28;20062;-61
2023/10/05 11:23:23;;;;;;;4.55;0.40;;;;;;;23.09;67.83;100353.56;5105314;28;20024;-61
2023/10/05 11:25:51;;;;;;;;;;;;;;;21.95;68.81;100361.06;5105477;28;20028;-61
2023/10/05 11:28:23;;;;;;;0.38;0.28;;;;;;;20.86;72.43;100367.78;5108087;28;19934;-61
2023/10/05 11:30:49;;;;;;;0.93;0.50;;;;;;;20.15;75.55;100365.16;5108980;28;20024;-61
2023/10/05 11:33:17;;;;;;;1.48;0.52;;;;;;;19.73;77.69;100379.47;5108973;28;20080;-61
2023/10/05 11:35:51;;;;;;;0.52;0.45;;;;;;;18.94;71.18;100367.16;5109206;28;20035;-61
2023/10/05 11:38:19;;;;;;;0.90;0.50;;;;;;;18.70;76.10;100382.25;5109168;28;20076;-61
2023/10/05 11:40:49;;;;;;;1.25;0.50;;;;;;;18.19;78.11;100379.97;5108513;28;20075;-61
2023/10/05 11:43:21;;;;;;;0.50;0.40;;;;;;;17.77;78.00;100397.31;5108699;28;20024;-61
2023/10/05 11:45:56;;;;;;;1.08;0.45;;;;;;;17.80;81.32;100394.59;5108993;28;20028;-61
2023/10/05 11:48:27;;;;;;;0.55;0.40;;;;;;;17.51;77.93;100400.03;5108687;28;20111;-61
2023/10/05 11:50:52;;;;;;;0.52;0.40;;;;;;;17.33;77.08;100402.44;5108458;28;20028;-62
2023/10/05 11:53:22;;;;;;;0.73;0.47;;;;;;;17.18;77.93;100403.88;5108816;28;20031;-61
2023/10/05 11:55:49;;;;;;;0.50;0.50;;;;;;;16.96;78.07;100398.50;5108691;28;20083;-60
2023/10/05 11:58:17;;;;;;;0.32;0.32;;;;;;;16.89;80.98;100397.84;5108287;28;20023;-62
2023/10/05 12:00:43;;;;;;;1.45;0.70;;;;;;;16.76;80.60;100392.19;5108486;28;20024;-61
2023/10/05 12:03:10;;;;;;;0.63;0.43;;;;;;;16.63;82.21;100401.38;5108252;28;20316;-61
2023/10/05 12:05:38;;;;;;;1.05;0.60;;;;;;;16.43;83.68;100402.91;5108518;28;20027;-61